sensor_id;sensor_type;location;lat;lon;timestamp;P1;durP1;ratioP1;P2;durP2;ratioP2
67712;SDS011;54503;55.784;49.138;2022-09-30T00:04:14;8.57;;;4.50;;
67712;SDS011;54503;55.784;49.138;2022-09-30T00:09:47;8.23;;;4.13;;
67712;SDS011;54503;55.784;49.138;2022-09-30T00:14:53;7.87;;;4.10;;
67712;SDS011;54503;55.784;49.138;2022-09-30T00:20:12;7.90;;;4.47;;
67712;SDS011;54503;55.784;49.138;2022-09-30T00:25:31;7.20;;;4.33;;
67712;SDS011;54503;55.784;49.138;2022-09-30T00:30:50;8.78;;;4.67;;
67712;SDS011;54503;55.784;49.138;2022-09-30T00:36:09;8.63;;;4.50;;
67712;SDS011;54503;55.784;49.138;2022-09-30T00:41:15;13.05;;;5.10;;
67712;SDS011;54503;55.784;49.138;2022-09-30T00:51:43;10.73;;;4.83;;
67712;SDS011;54503;55.784;49.138;2022-09-30T01:02:09;12.70;;;5.15;;
67712;SDS011;54503;55.784;49.138;2022-09-30T01:07:16;10.90;;;4.92;;
67712;SDS011;54503;55.784;49.138;2022-09-30T01:12:22;13.13;;;5.12;;
67712;SDS011;54503;55.784;49.138;2022-09-30T01:39:32;9.40;;;5.17;;
67712;SDS011;54503;55.784;49.138;2022-09-30T01:50:41;10.20;;;4.80;;
67712;SDS011;54503;55.784;49.138;2022-09-30T01:55:46;11.70;;;5.15;;
67712;SDS011;54503;55.784;49.138;2022-09-30T02:01:07;11.45;;;5.30;;
67712;SDS011;54503;55.784;49.138;2022-09-30T02:06:40;11.12;;;5.30;;
67712;SDS011;54503;55.784;49.138;2022-09-30T02:11:45;10.70;;;5.30;;
67712;SDS011;54503;55.784;49.138;2022-09-30T02:27:59;10.23;;;5.03;;
67712;SDS011;54503;55.784;49.138;2022-09-30T02:38:56;10.08;;;4.92;;
67712;SDS011;54503;55.784;49.138;2022-09-30T02:44:14;12.93;;;5.65;;
67712;SDS011;54503;55.784;49.138;2022-09-30T03:00:24;11.90;;;5.30;;
67712;SDS011;54503;55.784;49.138;2022-09-30T03:05:43;10.65;;;5.10;;
67712;SDS011;54503;55.784;49.138;2022-09-30T03:11:03;12.75;;;5.53;;
67712;SDS011;54503;55.784;49.138;2022-09-30T03:21:36;12.47;;;5.30;;
67712;SDS011;54503;55.784;49.138;2022-09-30T03:32:19;13.37;;;5.80;;
67712;SDS011;54503;55.784;49.138;2022-09-30T03:48:38;11.93;;;5.58;;
67712;SDS011;54503;55.784;49.138;2022-09-30T03:54:20;10.08;;;5.10;;
67712;SDS011;54503;55.784;49.138;2022-09-30T03:59:25;12.53;;;6.00;;
67712;SDS011;54503;55.784;49.138;2022-09-30T04:04:47;11.37;;;5.23;;
67712;SDS011;54503;55.784;49.138;2022-09-30T04:09:53;10.03;;;5.12;;
67712;SDS011;54503;55.784;49.138;2022-09-30T04:14:59;13.25;;;5.90;;
67712;SDS011;54503;55.784;49.138;2022-09-30T04:20:18;12.33;;;5.10;;
67712;SDS011;54503;55.784;49.138;2022-09-30T04:25:37;10.55;;;5.50;;
67712;SDS011;54503;55.784;49.138;2022-09-30T04:36:22;11.88;;;5.17;;
67712;SDS011;54503;55.784;49.138;2022-09-30T04:41:41;14.00;;;5.60;;
67712;SDS011;54503;55.784;49.138;2022-09-30T04:46:46;14.15;;;5.95;;
67712;SDS011;54503;55.784;49.138;2022-09-30T04:52:05;11.93;;;5.67;;
67712;SDS011;54503;55.784;49.138;2022-09-30T04:57:29;12.00;;;5.78;;
67712;SDS011;54503;55.784;49.138;2022-09-30T05:02:35;12.80;;;6.30;;
67712;SDS011;54503;55.784;49.138;2022-09-30T05:13:33;13.68;;;6.35;;
67712;SDS011;54503;55.784;49.138;2022-09-30T05:18:52;17.30;;;7.00;;
67712;SDS011;54503;55.784;49.138;2022-09-30T05:24:11;13.85;;;6.33;;
67712;SDS011;54503;55.784;49.138;2022-09-30T05:29:18;13.55;;;6.45;;
67712;SDS011;54503;55.784;49.138;2022-09-30T05:34:22;19.27;;;6.13;;
67712;SDS011;54503;55.784;49.138;2022-09-30T05:39:42;16.02;;;6.28;;
67712;SDS011;54503;55.784;49.138;2022-09-30T05:44:47;15.00;;;7.22;;
67712;SDS011;54503;55.784;49.138;2022-09-30T05:50:06;14.43;;;6.67;;
67712;SDS011;54503;55.784;49.138;2022-09-30T05:55:25;14.68;;;7.35;;
67712;SDS011;54503;55.784;49.138;2022-09-30T06:00:45;14.00;;;6.78;;
67712;SDS011;54503;55.784;49.138;2022-09-30T06:06:05;11.55;;;6.55;;
67712;SDS011;54503;55.784;49.138;2022-09-30T06:11:12;15.60;;;6.17;;
67712;SDS011;54503;55.784;49.138;2022-09-30T06:22:04;13.00;;;6.07;;
67712;SDS011;54503;55.784;49.138;2022-09-30T06:27:10;17.60;;;7.22;;
67712;SDS011;54503;55.784;49.138;2022-09-30T06:32:29;15.83;;;6.87;;
67712;SDS011;54503;55.784;49.138;2022-09-30T06:37:49;16.10;;;6.65;;
67712;SDS011;54503;55.784;49.138;2022-09-30T06:43:08;15.00;;;6.55;;
67712;SDS011;54503;55.784;49.138;2022-09-30T06:48:42;14.25;;;6.22;;
67712;SDS011;54503;55.784;49.138;2022-09-30T06:59:32;15.53;;;6.70;;
67712;SDS011;54503;55.784;49.138;2022-09-30T07:04:38;13.75;;;6.40;;
67712;SDS011;54503;55.784;49.138;2022-09-30T07:09:57;13.72;;;6.45;;
67712;SDS011;54503;55.784;49.138;2022-09-30T07:15:03;19.90;;;6.87;;
67712;SDS011;54503;55.784;49.138;2022-09-30T07:20:08;13.90;;;6.53;;
67712;SDS011;54503;55.784;49.138;2022-09-30T07:25:28;12.73;;;6.10;;
67712;SDS011;54503;55.784;49.138;2022-09-30T07:30:47;11.12;;;6.20;;
67712;SDS011;54503;55.784;49.138;2022-09-30T07:36:06;12.93;;;6.08;;
67712;SDS011;54503;55.784;49.138;2022-09-30T07:41:12;14.18;;;6.15;;
67712;SDS011;54503;55.784;49.138;2022-09-30T07:46:20;16.97;;;6.78;;
67712;SDS011;54503;55.784;49.138;2022-09-30T07:57:05;19.12;;;7.03;;
67712;SDS011;54503;55.784;49.138;2022-09-30T08:02:24;11.70;;;7.03;;
67712;SDS011;54503;55.784;49.138;2022-09-30T08:07:43;18.77;;;6.77;;
67712;SDS011;54503;55.784;49.138;2022-09-30T08:12:48;17.27;;;8.10;;
67712;SDS011;54503;55.784;49.138;2022-09-30T08:17:54;25.57;;;6.97;;
67712;SDS011;54503;55.784;49.138;2022-09-30T08:22:59;16.95;;;7.30;;
67712;SDS011;54503;55.784;49.138;2022-09-30T08:28:05;21.23;;;8.45;;
67712;SDS011;54503;55.784;49.138;2022-09-30T08:33:24;15.03;;;6.62;;
67712;SDS011;54503;55.784;49.138;2022-09-30T08:38:30;12.45;;;6.60;;
67712;SDS011;54503;55.784;49.138;2022-09-30T08:54:49;11.43;;;6.47;;
67712;SDS011;54503;55.784;49.138;2022-09-30T08:59:57;9.50;;;6.07;;
67712;SDS011;54503;55.784;49.138;2022-09-30T09:10:43;9.70;;;5.67;;
67712;SDS011;54503;55.784;49.138;2022-09-30T09:26:47;9.08;;;5.25;;
67712;SDS011;54503;55.784;49.138;2022-09-30T09:54:33;14.93;;;6.75;;
67712;SDS011;54503;55.784;49.138;2022-09-30T10:05:36;11.97;;;6.77;;
67712;SDS011;54503;55.784;49.138;2022-09-30T10:16:04;8.77;;;5.20;;
67712;SDS011;54503;55.784;49.138;2022-09-30T10:32:16;8.50;;;4.67;;
67712;SDS011;54503;55.784;49.138;2022-09-30T10:37:36;8.55;;;5.10;;
67712;SDS011;54503;55.784;49.138;2022-09-30T10:42:55;12.13;;;5.83;;
67712;SDS011;54503;55.784;49.138;2022-09-30T10:48:04;19.25;;;6.58;;
67712;SDS011;54503;55.784;49.138;2022-09-30T12:04:57;19.43;;;8.20;;
67712;SDS011;54503;55.784;49.138;2022-09-30T12:10:22;25.68;;;8.28;;
67712;SDS011;54503;55.784;49.138;2022-09-30T12:15:40;14.25;;;7.37;;
67712;SDS011;54503;55.784;49.138;2022-09-30T12:26:38;22.58;;;7.65;;
67712;SDS011;54503;55.784;49.138;2022-09-30T12:47:58;27.17;;;8.43;;
67712;SDS011;54503;55.784;49.138;2022-09-30T12:53:20;17.10;;;6.80;;
67712;SDS011;54503;55.784;49.138;2022-09-30T12:58:29;20.50;;;8.60;;
67712;SDS011;54503;55.784;49.138;2022-09-30T13:14:44;14.70;;;6.97;;
67712;SDS011;54503;55.784;49.138;2022-09-30T13:19:49;20.15;;;7.53;;
67712;SDS011;54503;55.784;49.138;2022-09-30T13:30:47;14.50;;;7.08;;
67712;SDS011;54503;55.784;49.138;2022-09-30T13:36:13;13.88;;;6.97;;
67712;SDS011;54503;55.784;49.138;2022-09-30T13:52:28;21.35;;;8.35;;
67712;SDS011;54503;55.784;49.138;2022-09-30T14:25:03;17.90;;;8.03;;
67712;SDS011;54503;55.784;49.138;2022-09-30T14:35:53;25.12;;;9.15;;
67712;SDS011;54503;55.784;49.138;2022-09-30T14:41:13;18.42;;;8.08;;
67712;SDS011;54503;55.784;49.138;2022-09-30T14:46:37;17.57;;;7.83;;
67712;SDS011;54503;55.784;49.138;2022-09-30T14:51:57;18.43;;;8.03;;
67712;SDS011;54503;55.784;49.138;2022-09-30T14:57:17;17.52;;;7.53;;
67712;SDS011;54503;55.784;49.138;2022-09-30T15:07:44;22.87;;;8.60;;
67712;SDS011;54503;55.784;49.138;2022-09-30T15:12:50;17.20;;;7.50;;
67712;SDS011;54503;55.784;49.138;2022-09-30T15:23:49;20.87;;;8.03;;
67712;SDS011;54503;55.784;49.138;2022-09-30T15:28:55;26.15;;;8.73;;
67712;SDS011;54503;55.784;49.138;2022-09-30T15:34:16;21.27;;;9.00;;
67712;SDS011;54503;55.784;49.138;2022-09-30T15:44:42;18.67;;;7.55;;
67712;SDS011;54503;55.784;49.138;2022-09-30T15:49:47;24.15;;;7.50;;
67712;SDS011;54503;55.784;49.138;2022-09-30T15:54:54;15.50;;;7.28;;
67712;SDS011;54503;55.784;49.138;2022-09-30T16:05:39;18.00;;;7.40;;
67712;SDS011;54503;55.784;49.138;2022-09-30T16:10:47;17.13;;;7.07;;
67712;SDS011;54503;55.784;49.138;2022-09-30T16:16:09;14.68;;;7.33;;
67712;SDS011;54503;55.784;49.138;2022-09-30T16:38:11;11.03;;;6.10;;
67712;SDS011;54503;55.784;49.138;2022-09-30T16:43:16;12.80;;;5.80;;
67712;SDS011;54503;55.784;49.138;2022-09-30T16:48:37;14.43;;;6.57;;
67712;SDS011;54503;55.784;49.138;2022-09-30T16:54:02;12.93;;;6.13;;
67712;SDS011;54503;55.784;49.138;2022-09-30T16:59:11;15.00;;;6.60;;
67712;SDS011;54503;55.784;49.138;2022-09-30T17:04:17;16.42;;;6.45;;
67712;SDS011;54503;55.784;49.138;2022-09-30T17:09:38;12.77;;;6.37;;
67712;SDS011;54503;55.784;49.138;2022-09-30T17:14:47;12.35;;;6.30;;
67712;SDS011;54503;55.784;49.138;2022-09-30T17:20:11;13.53;;;7.20;;
67712;SDS011;54503;55.784;49.138;2022-09-30T17:25:17;14.93;;;6.57;;
67712;SDS011;54503;55.784;49.138;2022-09-30T17:30:28;17.57;;;7.12;;
67712;SDS011;54503;55.784;49.138;2022-09-30T17:35:59;14.85;;;7.08;;
67712;SDS011;54503;55.784;49.138;2022-09-30T17:41:05;14.30;;;7.23;;
67712;SDS011;54503;55.784;49.138;2022-09-30T17:46:38;14.07;;;7.12;;
67712;SDS011;54503;55.784;49.138;2022-09-30T17:51:50;14.40;;;7.03;;
67712;SDS011;54503;55.784;49.138;2022-09-30T17:57:09;16.00;;;7.25;;
67712;SDS011;54503;55.784;49.138;2022-09-30T18:02:28;14.23;;;6.92;;
67712;SDS011;54503;55.784;49.138;2022-09-30T18:07:33;13.10;;;6.80;;
67712;SDS011;54503;55.784;49.138;2022-09-30T18:12:38;12.43;;;6.72;;
67712;SDS011;54503;55.784;49.138;2022-09-30T18:17:45;15.40;;;6.90;;
67712;SDS011;54503;55.784;49.138;2022-09-30T18:22:52;15.93;;;7.97;;
67712;SDS011;54503;55.784;49.138;2022-09-30T18:28:11;15.80;;;6.90;;
67712;SDS011;54503;55.784;49.138;2022-09-30T18:33:30;15.50;;;7.08;;
67712;SDS011;54503;55.784;49.138;2022-09-30T18:39:02;15.98;;;7.62;;
67712;SDS011;54503;55.784;49.138;2022-09-30T18:44:07;17.62;;;7.97;;
67712;SDS011;54503;55.784;49.138;2022-09-30T18:49:12;16.55;;;7.83;;
67712;SDS011;54503;55.784;49.138;2022-09-30T18:54:31;12.87;;;6.83;;
67712;SDS011;54503;55.784;49.138;2022-09-30T18:59:50;16.87;;;7.60;;
67712;SDS011;54503;55.784;49.138;2022-09-30T19:05:10;15.50;;;7.75;;
67712;SDS011;54503;55.784;49.138;2022-09-30T19:10:15;15.72;;;7.87;;
67712;SDS011;54503;55.784;49.138;2022-09-30T19:15:20;16.65;;;7.47;;
67712;SDS011;54503;55.784;49.138;2022-09-30T19:20:43;16.23;;;7.08;;
67712;SDS011;54503;55.784;49.138;2022-09-30T19:31:13;15.05;;;7.42;;
67712;SDS011;54503;55.784;49.138;2022-09-30T19:36:33;15.97;;;7.70;;
67712;SDS011;54503;55.784;49.138;2022-09-30T19:41:41;16.35;;;7.25;;
67712;SDS011;54503;55.784;49.138;2022-09-30T19:47:00;16.97;;;7.33;;
67712;SDS011;54503;55.784;49.138;2022-09-30T19:52:20;18.10;;;7.87;;
67712;SDS011;54503;55.784;49.138;2022-09-30T19:57:25;15.78;;;7.42;;
67712;SDS011;54503;55.784;49.138;2022-09-30T20:02:47;17.32;;;7.58;;
67712;SDS011;54503;55.784;49.138;2022-09-30T20:08:06;16.27;;;8.50;;
67712;SDS011;54503;55.784;49.138;2022-09-30T20:19:09;18.23;;;7.50;;
67712;SDS011;54503;55.784;49.138;2022-09-30T20:24:15;16.30;;;7.70;;
67712;SDS011;54503;55.784;49.138;2022-09-30T20:29:34;18.85;;;8.08;;
67712;SDS011;54503;55.784;49.138;2022-09-30T20:34:39;20.75;;;8.40;;
67712;SDS011;54503;55.784;49.138;2022-09-30T20:39:59;21.17;;;8.07;;
67712;SDS011;54503;55.784;49.138;2022-09-30T20:45:18;17.45;;;7.55;;
67712;SDS011;54503;55.784;49.138;2022-09-30T20:50:38;18.30;;;7.67;;
67712;SDS011;54503;55.784;49.138;2022-09-30T20:55:44;19.27;;;8.28;;
67712;SDS011;54503;55.784;49.138;2022-09-30T21:00:49;18.52;;;7.87;;
67712;SDS011;54503;55.784;49.138;2022-09-30T21:05:55;23.43;;;7.43;;
67712;SDS011;54503;55.784;49.138;2022-09-30T21:11:01;21.12;;;8.80;;
67712;SDS011;54503;55.784;49.138;2022-09-30T21:16:21;16.55;;;7.83;;
67712;SDS011;54503;55.784;49.138;2022-09-30T21:21:26;18.37;;;7.87;;
67712;SDS011;54503;55.784;49.138;2022-09-30T21:26:32;19.92;;;8.15;;
67712;SDS011;54503;55.784;49.138;2022-09-30T21:31:51;18.00;;;8.33;;
67712;SDS011;54503;55.784;49.138;2022-09-30T21:37:10;19.20;;;8.43;;
67712;SDS011;54503;55.784;49.138;2022-09-30T21:42:30;15.38;;;7.83;;
67712;SDS011;54503;55.784;49.138;2022-09-30T21:47:36;20.57;;;8.73;;
67712;SDS011;54503;55.784;49.138;2022-09-30T21:52:41;20.55;;;8.65;;
67712;SDS011;54503;55.784;49.138;2022-09-30T21:57:47;19.87;;;8.23;;
67712;SDS011;54503;55.784;49.138;2022-09-30T22:03:06;17.53;;;7.93;;
67712;SDS011;54503;55.784;49.138;2022-09-30T22:08:11;19.25;;;8.53;;
67712;SDS011;54503;55.784;49.138;2022-09-30T22:13:31;20.70;;;8.68;;
67712;SDS011;54503;55.784;49.138;2022-09-30T22:18:36;21.37;;;9.07;;
67712;SDS011;54503;55.784;49.138;2022-09-30T22:24:15;15.23;;;8.33;;
67712;SDS011;54503;55.784;49.138;2022-09-30T22:29:34;17.57;;;8.13;;
67712;SDS011;54503;55.784;49.138;2022-09-30T22:34:40;18.37;;;8.33;;
67712;SDS011;54503;55.784;49.138;2022-09-30T22:40:04;20.10;;;8.95;;
67712;SDS011;54503;55.784;49.138;2022-09-30T22:45:10;26.73;;;8.80;;
67712;SDS011;54503;55.784;49.138;2022-09-30T22:50:28;29.52;;;8.95;;
67712;SDS011;54503;55.784;49.138;2022-09-30T22:55:34;19.20;;;8.63;;
67712;SDS011;54503;55.784;49.138;2022-09-30T23:00:40;20.93;;;9.07;;
67712;SDS011;54503;55.784;49.138;2022-09-30T23:06:10;21.83;;;9.50;;
67712;SDS011;54503;55.784;49.138;2022-09-30T23:11:16;23.85;;;8.90;;
67712;SDS011;54503;55.784;49.138;2022-09-30T23:16:21;18.73;;;8.40;;
67712;SDS011;54503;55.784;49.138;2022-09-30T23:21:40;23.17;;;9.40;;
67712;SDS011;54503;55.784;49.138;2022-09-30T23:26:45;19.32;;;9.30;;
67712;SDS011;54503;55.784;49.138;2022-09-30T23:32:05;21.87;;;9.50;;
67712;SDS011;54503;55.784;49.138;2022-09-30T23:37:24;22.37;;;9.30;;
67712;SDS011;54503;55.784;49.138;2022-09-30T23:42:43;21.07;;;9.38;;
67712;SDS011;54503;55.784;49.138;2022-09-30T23:48:02;20.97;;;9.20;;
67712;SDS011;54503;55.784;49.138;2022-09-30T23:53:08;18.65;;;8.88;;
67712;SDS011;54503;55.784;49.138;2022-09-30T23:58:13;19.12;;;8.08;;
